Beaver Island, MI

3:17 PM EST on March 06, 2015 (GMT -0500)
Harbor Springs | Change Station
CLOSE
Current Station
Airport
Location: Harbor Springs,
Elevation: 686 ft
Nearby Weather Stations

Elev 686 ft 45.43 °N, 84.91 °W | Updated 22 minutes ago

Clear
Clear
27 °F
Feels Like 15 °F
N
15
Wind Variable Wind from SSW
Gusts 25 mph

Today
High -- | Low -- °F
--% Chance of Precip.
Yesterday
High -- | Low -- °F
Precip. -- in
7:12 AM 6:35 PM
Full, 99% visible
Pressure 30.03 in
Visibility 10.0 miles
Clouds Clear
Windchill 15 °F
Dew Point 11 °F
Humidity 50%
Rainfall 0.00 in
Snow Depth Not available.
UV 3 out of 12
Pollen .40 out of 12
Air Quality Not available.
Flu Activity Not available.
METAR KMGN 061955Z AUTO 21013G22KT 10SM CLR M02/M11 A3003 RMK AO2 T10271118

More Conditions Fewer Conditions

Pressure 30.03 in
Visibility 10.0 miles
Clouds Clear
Windchill 15 °F
Dew Point 11 °F
Humidity 50%
Rainfall 0.00 in
Snow Depth Not available.
UV 3 out of 12
Pollen .40 out of 12
Air Quality Not available.
Flu Activity Not available.
METAR KMGN 061955Z AUTO 21013G22KT 10SM CLR M02/M11 A3003 RMK AO2 T10271118

More Conditions Fewer Conditions

Nowcast | as of 2:00 PM EST on March 6, 2015

At 3 PM...mostly cloudy. Scattered flurries. Temperature 25. Southwest winds 22 mph. At 5 PM...mostly cloudy. Scattered flurries. Temperature 25. Southwest winds 23 mph with gusts to 35 mph. At 7 PM...cloudy. Scattered flurries. Temperature 23. Southwest winds 17 mph with gusts to 30 mph. At 9 PM...cloudy. Chance of snow. Temperature 22. Southwest winds 14 mph.

×

10-Day Weather Forecast

Almanac

Astronomy

Mar. 06, 2015 Rise Set
Actual Time
Civil Twilight
Nautical Twilight
Astronomical Twilight
Moon
Length of Visible Light
Length of Day
Tomorrow will be .
, % of the Moon is Illuminated

Today's Extremes

State Highs State Lows

Community

WunderPhotos

Upload Photos

1,803,386 photos uploaded!

WunderBlogs® & News

Nearby

Air Quality

  Air Quality AQ Index Pollutant
Not available.

Snow Depth

Station Depth Elevation

Earthquake Activity

City Distance Mag. Time & Date
Minimum magnitude displayed is 2.5.

Coastal Water Temperatures

Place Temperature

Nearby Weather Stations